Time;durP1;ratioP1;P1;durP2;ratioP2;P2;SDS_P1;SDS_P2;PMS_P1;PMS_P2;Temp;Humidity;BMP_temperature;BMP_pressure;BME280_temperature;BME280_humidity;BME280_pressure;Samples;Min_cycle;Max_cycle;Signal;HPM_P1;HPM_P2
2023/11/11 00:01:58;;;;;;;1.60;1.00;;;;;;;2.22;100.00;91305.84;4938381;29;20043;-79
2023/11/11 00:04:25;;;;;;;2.13;1.33;;;;;;;2.11;100.00;91306.91;4931217;29;20400;-79
2023/11/11 00:06:51;;;;;;;3.17;1.60;;;;;;;2.00;100.00;91310.56;4953053;29;20031;-79
2023/11/11 00:09:18;;;;;;;2.25;1.40;;;;;;;1.91;100.00;91312.88;4954674;29;20093;-79
2023/11/11 00:11:45;;;;;;;2.08;1.27;;;;;;;1.84;100.00;91309.81;4930890;29;20059;-79
2023/11/11 00:14:14;;;;;;;2.60;1.30;;;;;;;1.75;100.00;91301.81;4951324;29;20161;-79
2023/11/11 00:16:40;;;;;;;1.02;0.90;;;;;;;1.71;100.00;91315.50;4940139;29;20100;-79
2023/11/11 00:19:11;;;;;;;1.10;1.00;;;;;;;1.66;100.00;91317.06;4941944;29;20095;-80
2023/11/11 00:21:39;;;;;;;0.82;0.82;;;;;;;1.62;100.00;91315.25;4937946;29;20517;-79
2023/11/11 00:24:07;;;;;;;1.48;1.00;;;;;;;1.62;100.00;91316.06;4959735;28;20031;-80
2023/11/11 00:26:33;;;;;;;1.15;1.02;;;;;;;1.57;100.00;91312.69;4946667;29;20039;-80
2023/11/11 00:28:59;;;;;;;3.53;0.98;;;;;;;1.53;100.00;91307.28;4947414;29;20046;-79
2023/11/11 00:31:24;;;;;;;1.88;1.00;;;;;;;1.51;100.00;91309.34;4954955;29;20027;-79
2023/11/11 00:33:51;;;;;;;1.73;1.02;;;;;;;1.47;100.00;91312.72;4946857;29;20067;-80
2023/11/11 00:36:19;;;;;;;2.97;1.10;;;;;;;1.44;100.00;91314.78;4931452;29;20056;-80
2023/11/11 00:38:45;;;;;;;0.80;0.80;;;;;;;1.42;100.00;91305.75;4926598;29;20043;-80
2023/11/11 00:41:11;;;;;;;1.08;0.98;;;;;;;1.39;100.00;91309.59;4922981;29;20373;-79
2023/11/11 00:43:37;;;;;;;1.50;1.08;;;;;;;1.36;100.00;91310.13;4930783;29;20495;-79
2023/11/11 00:46:02;;;;;;;1.20;0.90;;;;;;;1.32;100.00;91316.81;4933333;29;20094;-79
2023/11/11 00:48:28;;;;;;;1.55;1.10;;;;;;;1.33;100.00;91307.28;4925458;29;20027;-80
2023/11/11 00:50:54;;;;;;;1.20;0.80;;;;;;;1.31;100.00;91302.41;4933841;29;20134;-80
2023/11/11 00:53:19;;;;;;;2.20;1.08;;;;;;;1.31;100.00;91302.41;4925571;29;20462;-80
2023/11/11 00:55:45;;;;;;;3.33;1.00;;;;;;;1.29;100.00;91308.84;4929751;29;20039;-79
2023/11/11 00:58:11;;;;;;;0.80;0.75;;;;;;;1.26;100.00;91302.38;4935010;29;20030;-79
2023/11/11 01:00:38;;;;;;;1.38;0.88;;;;;;;1.23;100.00;91297.75;4927074;29;20050;-80
2023/11/11 01:03:05;;;;;;;0.80;0.80;;;;;;;1.25;100.00;91306.00;4935245;29;20034;-79
2023/11/11 01:05:31;;;;;;;1.10;1.00;;;;;;;1.24;100.00;91320.69;4933889;29;20035;-79
2023/11/11 01:07:57;;;;;;;1.65;1.00;;;;;;;1.25;100.00;91311.16;4933346;29;20039;-79
2023/11/11 01:10:23;;;;;;;0.80;0.80;;;;;;;1.25;100.00;91311.16;4933051;29;20087;-79
2023/11/11 01:12:51;;;;;;;1.10;0.98;;;;;;;1.27;100.00;91310.91;4925020;29;20035;-80
2023/11/11 01:15:17;;;;;;;0.80;0.80;;;;;;;1.27;100.00;91308.31;4924040;29;20520;-80
2023/11/11 01:17:44;;;;;;;1.05;0.85;;;;;;;1.26;100.00;91307.53;4915749;29;20091;-79
2023/11/11 01:20:11;;;;;;;1.25;0.95;;;;;;;1.25;100.00;91300.84;4935042;29;20087;-79
2023/11/11 01:22:38;;;;;;;0.70;0.70;;;;;;;1.26;100.00;91297.22;4926482;29;20495;-79
2023/11/11 01:25:05;;;;;;;0.65;0.65;;;;;;;1.26;100.00;91297.22;4926539;29;20067;-79
2023/11/11 01:27:35;;;;;;;1.15;0.90;;;;;;;1.26;100.00;91299.78;4928251;29;20036;-79
2023/11/11 01:30:02;;;;;;;1.90;1.00;;;;;;;1.27;100.00;91301.34;4926024;29;20242;-80
2023/11/11 01:32:28;;;;;;;0.85;0.80;;;;;;;1.29;100.00;91301.88;4920602;29;20036;-79
2023/11/11 01:34:54;;;;;;;0.95;0.90;;;;;;;1.29;100.00;91306.25;4936696;29;20106;-79
2023/11/11 01:37:20;;;;;;;0.90;0.70;;;;;;;1.28;100.00;91299.53;4946713;29;20510;-79
2023/11/11 01:39:47;;;;;;;0.80;0.80;;;;;;;1.26;100.00;91302.38;4945690;29;20106;-80
2023/11/11 01:42:15;;;;;;;0.98;0.90;;;;;;;1.27;100.00;91298.00;4945162;29;20126;-79
2023/11/11 01:44:41;;;;;;;0.80;0.80;;;;;;;1.28;100.00;91302.13;4946353;29;20046;-79
2023/11/11 01:47:07;;;;;;;0.80;0.80;;;;;;;1.30;100.00;91302.66;4953322;29;20139;-79
2023/11/11 01:49:37;;;;;;;1.42;1.00;;;;;;;1.45;100.00;91313.72;4935551;29;20047;-79
2023/11/11 01:52:06;;;;;;;0.80;0.80;;;;;;;1.70;100.00;91304.41;4952389;29;20031;-79
2023/11/11 01:54:33;;;;;;;0.73;0.73;;;;;;;2.11;100.00;91306.13;4942018;29;20369;-79
2023/11/11 01:57:03;;;;;;;0.88;0.80;;;;;;;2.28;100.00;91316.94;4950378;28;20411;-79
2023/11/11 01:59:29;;;;;;;0.85;0.80;;;;;;;2.28;100.00;91317.69;4935986;29;20109;-79
2023/11/11 02:01:55;;;;;;;0.80;0.80;;;;;;;2.31;100.00;91318.97;4933769;29;20031;-79
2023/11/11 02:04:20;;;;;;;0.80;0.80;;;;;;;2.23;100.00;91320.31;4931867;29;20044;-79
2023/11/11 02:06:49;;;;;;;0.60;0.60;;;;;;;2.31;100.00;91315.63;4949345;29;20047;-79
2023/11/11 02:09:18;;;;;;;1.00;0.75;;;;;;;2.44;100.00;91313.25;4945430;29;20027;-79
2023/11/11 02:11:51;;;;;;;0.68;0.68;;;;;;;2.66;100.00;91309.56;4935294;29;20142;-80
2023/11/11 02:14:17;;;;;;;0.80;0.80;;;;;;;2.77;100.00;91308.47;4933374;29;20047;-79
2023/11/11 02:16:44;;;;;;;1.13;0.95;;;;;;;2.79;100.00;91310.75;4935723;29;20414;-80
2023/11/11 02:19:09;;;;;;;0.80;0.80;;;;;;;2.89;100.00;91321.81;4952064;28;20330;-80
2023/11/11 02:21:35;;;;;;;1.10;0.93;;;;;;;2.86;100.00;91322.38;4953995;28;20058;-79
2023/11/11 02:24:03;;;;;;;0.90;0.90;;;;;;;2.86;100.00;91317.19;4938740;29;20046;-79
2023/11/11 02:26:29;;;;;;;1.00;0.90;;;;;;;3.05;100.00;91319.16;4951467;29;20107;-79
2023/11/11 02:28:55;;;;;;;0.60;0.60;;;;;;;3.18;100.00;91328.13;4938050;29;20050;-77
2023/11/11 02:31:22;;;;;;;0.70;0.70;;;;;;;3.25;99.86;91336.34;4935377;29;20492;-79
2023/11/11 02:33:48;;;;;;;0.70;0.70;;;;;;;3.42;97.27;91334.16;4937739;29;20058;-79
2023/11/11 02:36:14;;;;;;;1.20;0.93;;;;;;;3.45;99.59;91345.78;4947507;28;20237;-79
2023/11/11 02:38:40;;;;;;;0.65;0.65;;;;;;;3.41;100.00;91348.13;4939033;29;20360;-79
2023/11/11 02:41:06;;;;;;;0.93;0.80;;;;;;;3.44;100.00;91344.22;4938500;29;20047;-80
2023/11/11 02:43:32;;;;;;;1.25;0.80;;;;;;;3.46;100.00;91340.34;4940255;29;20126;-80
2023/11/11 02:45:58;;;;;;;0.60;0.60;;;;;;;3.41;100.00;91342.97;4955432;29;20110;-75
2023/11/11 02:48:24;;;;;;;0.50;0.50;;;;;;;3.49;98.90;91333.84;4948909;29;20023;-78
2023/11/11 02:50:49;;;;;;;0.75;0.70;;;;;;;3.48;100.00;91332.31;4956524;29;20051;-80
2023/11/11 02:53:15;;;;;;;0.55;0.55;;;;;;;3.35;100.00;91333.69;4945708;29;20106;-79
2023/11/11 02:55:40;;;;;;;0.82;0.70;;;;;;;3.24;100.00;91337.38;4955826;29;20038;-80
2023/11/11 02:58:06;;;;;;;0.60;0.60;;;;;;;3.14;100.00;91317.53;4955931;29;20106;-79
2023/11/11 03:00:32;;;;;;;0.90;0.85;;;;;;;3.02;100.00;91315.28;4955899;29;20042;-79
2023/11/11 03:02:59;;;;;;;0.60;0.60;;;;;;;2.96;100.00;91328.53;4956975;29;20035;-80
2023/11/11 03:05:25;;;;;;;0.80;0.73;;;;;;;3.09;100.00;91315.75;4957220;29;20047;-79
2023/11/11 03:07:52;;;;;;;0.70;0.70;;;;;;;3.22;100.00;91313.59;4949462;29;20381;-80
2023/11/11 03:10:17;;;;;;;0.93;0.90;;;;;;;3.27;100.00;91306.59;4940079;29;20027;-80
2023/11/11 03:12:43;;;;;;;0.60;0.60;;;;;;;3.39;100.00;91303.66;4951234;29;20047;-79
2023/11/11 03:15:09;;;;;;;0.85;0.80;;;;;;;3.33;100.00;91304.72;4947451;29;20403;-80
2023/11/11 03:17:35;;;;;;;0.85;0.73;;;;;;;3.51;100.00;91300.72;4949960;29;20043;-79
2023/11/11 03:20:00;;;;;;;0.82;0.80;;;;;;;3.44;100.00;91298.44;4954217;29;20038;-79
2023/11/11 03:22:26;;;;;;;0.68;0.68;;;;;;;3.53;100.00;91299.41;4948155;29;20031;-80
2023/11/11 03:24:52;;;;;;;1.00;0.80;;;;;;;3.51;100.00;91300.72;4955069;29;20039;-79
2023/11/11 03:27:18;;;;;;;0.50;0.50;;;;;;;3.52;99.85;91294.50;4938666;29;20049;-79
2023/11/11 03:29:44;;;;;;;0.93;0.93;;;;;;;3.53;100.00;91288.28;4949306;29;20503;-79
2023/11/11 03:32:10;;;;;;;0.80;0.80;;;;;;;3.44;100.00;91293.25;4947995;29;20027;-80
2023/11/11 03:34:36;;;;;;;0.70;0.70;;;;;;;3.38;100.00;91289.19;4947398;28;20051;-79
2023/11/11 03:37:02;;;;;;;3.95;0.80;;;;;;;3.31;100.00;91292.09;4952490;29;20102;-80
2023/11/11 03:39:29;;;;;;;0.70;0.70;;;;;;;3.24;100.00;91296.00;4945685;29;20169;-80
2023/11/11 03:41:55;;;;;;;0.60;0.60;;;;;;;3.15;100.00;91297.63;4938907;29;20039;-80
2023/11/11 03:44:21;;;;;;;1.48;0.85;;;;;;;3.03;100.00;91301.31;4955483;29;20042;-80
2023/11/11 03:46:47;;;;;;;0.98;0.80;;;;;;;2.91;100.00;91300.88;4951277;29;20039;-79
2023/11/11 03:49:14;;;;;;;1.13;0.70;;;;;;;2.79;100.00;91310.75;4944717;29;20042;-80
2023/11/11 03:51:39;;;;;;;0.77;0.70;;;;;;;2.71;100.00;91309.53;4935639;29;20036;-80
2023/11/11 03:54:06;;;;;;;1.05;0.80;;;;;;;2.63;100.00;91312.66;4938040;29;20515;-79
2023/11/11 03:56:31;;;;;;;0.60;0.60;;;;;;;2.60;100.00;91308.03;4948402;28;20046;-79
2023/11/11 03:58:57;;;;;;;0.60;0.60;;;;;;;2.55;100.00;91320.97;4948420;29;20031;-80
2023/11/11 04:01:23;;;;;;;0.82;0.80;;;;;;;2.51;100.00;91320.72;4947983;29;20066;-79
2023/11/11 04:03:49;;;;;;;0.60;0.60;;;;;;;2.77;100.00;91320.59;4938042;29;20047;-79
2023/11/11 04:06:15;;;;;;;0.73;0.73;;;;;;;2.82;100.00;91330.91;4946740;29;20089;-79
2023/11/11 04:08:41;;;;;;;0.70;0.70;;;;;;;3.04;100.00;91318.38;4937392;29;20041;-79
2023/11/11 04:11:07;;;;;;;0.60;0.60;;;;;;;2.82;100.00;91323.16;4947558;29;20499;-79
2023/11/11 04:13:34;;;;;;;1.02;0.80;;;;;;;2.77;100.00;91329.13;4934788;29;20038;-79
2023/11/11 04:16:02;;;;;;;0.80;0.70;;;;;;;2.69;100.00;91330.44;4935481;29;20546;-80
2023/11/11 04:18:29;;;;;;;0.70;0.65;;;;;;;2.58;100.00;91326.38;4956995;28;20028;-79
2023/11/11 04:20:55;;;;;;;0.70;0.70;;;;;;;2.54;100.00;91325.34;4959097;28;20525;-79
2023/11/11 04:23:22;;;;;;;0.63;0.63;;;;;;;2.40;100.00;91332.91;4925539;29;20147;-80
2023/11/11 04:25:47;;;;;;;1.65;0.80;;;;;;;2.28;100.00;91338.38;4943761;29;20342;-79
2023/11/11 04:28:14;;;;;;;0.70;0.70;;;;;;;2.19;100.00;91342.53;4950889;29;20031;-80
2023/11/11 04:30:40;;;;;;;1.65;0.68;;;;;;;2.11;100.00;91343.06;4937984;29;20035;-80
2023/11/11 04:33:05;;;;;;;0.70;0.70;;;;;;;2.12;100.00;91346.41;4946242;29;20028;-78
2023/11/11 04:35:31;;;;;;;1.10;0.88;;;;;;;2.09;100.00;91342.53;4949105;29;20179;-78
2023/11/11 04:37:57;;;;;;;0.65;0.65;;;;;;;2.11;100.00;91335.31;4936069;29;20035;-80
2023/11/11 04:40:24;;;;;;;0.80;0.80;;;;;;;2.16;100.00;91340.47;4936486;29;20422;-80
2023/11/11 04:42:49;;;;;;;0.73;0.73;;;;;;;2.08;100.00;91344.34;4937496;29;20027;-79
2023/11/11 04:45:15;;;;;;;1.10;1.00;;;;;;;2.03;100.00;91338.44;4932996;29;20046;-80
2023/11/11 04:47:41;;;;;;;0.50;0.50;;;;;;;2.01;100.00;91343.84;4933777;29;20048;-79
2023/11/11 04:50:07;;;;;;;0.80;0.80;;;;;;;2.01;100.00;91348.25;4954134;29;20511;-79
2023/11/11 04:52:35;;;;;;;0.65;0.65;;;;;;;2.31;100.00;91346.63;4947988;29;20039;-80
2023/11/11 04:55:01;;;;;;;2.88;0.70;;;;;;;2.27;100.00;91349.75;4955097;29;20341;-80
2023/11/11 04:57:27;;;;;;;0.73;0.73;;;;;;;2.26;100.00;91345.59;4946835;29;20039;-79
2023/11/11 04:59:52;;;;;;;0.68;0.68;;;;;;;2.18;100.00;91345.34;4953319;29;20439;-78
2023/11/11 05:02:19;;;;;;;1.02;0.70;;;;;;;2.19;100.00;91352.84;4955177;29;20126;-79
2023/11/11 05:04:44;;;;;;;0.63;0.63;;;;;;;2.17;100.00;91356.72;4937915;29;20038;-80
2023/11/11 05:07:10;;;;;;;0.82;0.82;;;;;;;2.31;100.00;91367.28;4951530;29;20043;-80
2023/11/11 05:09:35;;;;;;;0.70;0.70;;;;;;;2.26;100.00;91366.25;4952326;29;20039;-80
2023/11/11 05:12:02;;;;;;;0.70;0.70;;;;;;;2.24;100.00;91363.16;4950829;28;20426;-79
2023/11/11 05:14:28;;;;;;;0.70;0.70;;;;;;;2.41;100.00;91367.25;4947590;29;20035;-79
2023/11/11 05:16:54;;;;;;;0.77;0.77;;;;;;;2.38;100.00;91362.59;4946150;29;20114;-80
2023/11/11 05:19:20;;;;;;;0.73;0.70;;;;;;;2.27;100.00;91360.06;4953467;29;20126;-79
2023/11/11 05:21:46;;;;;;;1.10;0.98;;;;;;;2.23;100.00;91368.56;4954019;29;20027;-80
2023/11/11 05:24:14;;;;;;;3.15;0.60;;;;;;;2.18;100.00;91366.78;4945754;29;20641;-80
2023/11/11 05:26:42;;;;;;;0.68;0.68;;;;;;;2.13;100.00;91382.28;4947263;28;20049;-80
2023/11/11 05:29:08;;;;;;;1.08;0.80;;;;;;;2.08;100.00;91369.41;4953319;29;20098;-80
2023/11/11 05:31:35;;;;;;;1.00;0.70;;;;;;;2.02;100.00;91385.91;4952049;29;20062;-80
2023/11/11 05:34:01;;;;;;;0.70;0.70;;;;;;;2.03;100.00;91390.06;4947356;29;20544;-80
2023/11/11 05:36:27;;;;;;;0.70;0.70;;;;;;;2.06;100.00;91405.03;4950932;29;20502;-80
2023/11/11 05:38:54;;;;;;;0.75;0.75;;;;;;;2.12;100.00;91403.19;4952969;29;20031;-78
2023/11/11 05:41:21;;;;;;;0.70;0.70;;;;;;;2.13;100.00;91418.44;4954282;29;20031;-80
2023/11/11 05:43:46;;;;;;;0.60;0.60;;;;;;;2.18;100.00;91415.84;4947865;29;20095;-80
2023/11/11 05:46:12;;;;;;;0.50;0.50;;;;;;;2.24;100.00;91425.13;4933482;29;20400;-80
2023/11/11 05:48:44;;;;;;;0.63;0.63;;;;;;;2.18;100.00;91418.41;4930120;29;20109;-80
2023/11/11 05:51:10;;;;;;;1.35;1.10;;;;;;;2.20;100.00;91433.66;4953742;29;20050;-79
2023/11/11 05:53:36;;;;;;;1.75;1.10;;;;;;;2.20;100.00;91442.19;4945970;29;20039;-79
2023/11/11 05:56:03;;;;;;;0.82;0.73;;;;;;;2.18;100.00;91452.00;4953064;28;20471;-79
2023/11/11 05:58:29;;;;;;;0.60;0.60;;;;;;;2.13;100.00;91454.59;4949346;29;20116;-79
2023/11/11 06:00:55;;;;;;;0.68;0.68;;;;;;;2.11;100.00;91459.22;4940935;29;20506;-79
2023/11/11 06:03:21;;;;;;;0.80;0.80;;;;;;;2.13;100.00;91459.75;4938262;29;20385;-80
2023/11/11 06:05:47;;;;;;;0.70;0.70;;;;;;;2.18;100.00;91452.00;4952082;29;20043;-79
2023/11/11 06:08:13;;;;;;;0.65;0.65;;;;;;;2.22;100.00;91463.34;4949360;28;20050;-79
2023/11/11 06:10:40;;;;;;;0.70;0.70;;;;;;;2.35;100.00;91462.06;4940297;29;20039;-80
2023/11/11 06:13:06;;;;;;;0.60;0.60;;;;;;;2.48;100.00;91465.91;4951974;29;20035;-78
2023/11/11 06:15:32;;;;;;;0.63;0.63;;;;;;;2.61;100.00;91460.22;4956497;29;20027;-78
2023/11/11 06:17:58;;;;;;;0.95;0.73;;;;;;;2.74;100.00;91460.69;4928388;29;20052;-77
2023/11/11 06:20:24;;;;;;;0.75;0.68;;;;;;;2.80;100.00;91459.66;4939346;29;20024;-80
2023/11/11 06:22:53;;;;;;;0.95;0.70;;;;;;;2.89;100.00;91465.81;4941025;29;20039;-81
2023/11/11 06:25:21;;;;;;;1.23;0.75;;;;;;;2.81;100.00;91463.75;4959966;29;20039;-82
2023/11/11 06:27:48;;;;;;;0.90;0.85;;;;;;;2.81;100.00;91474.09;4957336;29;20039;-81
2023/11/11 06:30:17;;;;;;;1.73;1.00;;;;;;;2.76;100.00;91472.31;4957301;29;20725;-81
2023/11/11 06:32:43;;;;;;;1.73;1.10;;;;;;;2.69;100.00;91482.91;4957323;29;20442;-81
2023/11/11 06:35:12;;;;;;;5.15;1.63;;;;;;;2.82;100.00;91475.66;4956637;29;20362;-82
2023/11/11 06:37:40;;;;;;;3.17;1.42;;;;;;;3.82;100.00;91474.66;4958104;29;20040;-81
2023/11/11 06:40:09;;;;;;;1.00;0.80;;;;;;;4.89;96.37;91470.41;4957158;29;20418;-82
2023/11/11 06:42:36;;;;;;;1.60;0.98;;;;;;;5.93;89.30;91479.25;4957057;29;20550;-82
2023/11/11 06:45:02;;;;;;;1.02;0.93;;;;;;;7.03;75.81;91480.66;4960268;29;20032;-83
2023/11/11 06:47:28;;;;;;;1.33;1.00;;;;;;;7.87;73.22;91471.69;4960088;28;20535;-83
2023/11/11 06:49:54;;;;;;;0.75;0.75;;;;;;;8.70;73.15;91476.63;4940415;29;20118;-82
2023/11/11 06:52:37;;;;;;;0.85;0.73;;;;;;;9.47;56.35;91477.25;4942268;29;20047;-84
2023/11/11 06:55:04;;;;;;;0.70;0.70;;;;;;;10.12;55.08;91467.81;4959353;29;20189;-82
2023/11/11 06:57:30;;;;;;;0.80;0.80;;;;;;;10.81;53.81;91473.03;4957690;28;20446;-80
2023/11/11 06:59:55;;;;;;;0.80;0.80;;;;;;;11.54;51.22;91487.09;4958248;29;20036;-81
2023/11/11 07:02:23;;;;;;;1.40;1.00;;;;;;;12.41;48.43;91479.50;4955432;29;20093;-78
2023/11/11 07:04:53;;;;;;;0.75;0.75;;;;;;;13.32;46.08;91479.56;4937544;29;20434;-81
2023/11/11 07:07:22;;;;;;;0.77;0.77;;;;;;;14.00;39.37;91461.69;4947066;29;20527;-79
2023/11/11 07:09:51;;;;;;;1.55;1.13;;;;;;;14.73;38.42;91469.41;4952562;29;20031;-79
2023/11/11 07:12:19;;;;;;;2.13;1.40;;;;;;;15.05;37.61;91466.09;4944681;29;20119;-79
2023/11/11 07:14:45;;;;;;;0.63;0.60;;;;;;;15.73;37.71;91473.78;4955428;29;20102;-80
2023/11/11 07:17:11;;;;;;;0.93;0.73;;;;;;;16.08;36.05;91480.97;4932462;29;20063;-79
2023/11/11 07:19:38;;;;;;;0.75;0.70;;;;;;;16.54;37.13;91480.41;4950243;29;20486;-77
2023/11/11 07:22:04;;;;;;;0.60;0.60;;;;;;;16.94;32.81;91481.97;4947761;29;20040;-79
2023/11/11 07:24:29;;;;;;;0.60;0.60;;;;;;;17.66;33.35;91487.38;4955745;29;20039;-79
2023/11/11 07:26:55;;;;;;;0.73;0.70;;;;;;;17.67;30.05;91488.94;4936126;29;20035;-80
2023/11/11 07:29:25;;;;;;;0.80;0.77;;;;;;;18.33;30.52;91491.44;4948664;29;20027;-79
2023/11/11 07:31:51;;;;;;;1.35;0.82;;;;;;;18.58;30.25;91506.91;4954608;29;20046;-80
2023/11/11 07:34:17;;;;;;;0.73;0.70;;;;;;;19.02;29.77;91496.47;4951572;29;20075;-80
2023/11/11 07:36:43;;;;;;;0.95;0.80;;;;;;;18.79;30.96;91490.53;4947587;28;20117;-80
2023/11/11 07:39:09;;;;;;;0.70;0.70;;;;;;;19.41;28.37;91498.78;4953323;28;20114;-80
2023/11/11 07:41:37;;;;;;;1.08;0.85;;;;;;;19.29;26.94;91497.13;4948781;29;20075;-80
2023/11/11 07:44:06;;;;;;;1.05;0.70;;;;;;;19.59;25.58;91488.34;4953691;29;20027;-80
2023/11/11 07:46:38;;;;;;;1.08;0.90;;;;;;;17.39;28.01;91499.03;4927876;29;20070;-81
2023/11/11 07:49:05;;;;;;;1.08;0.77;;;;;;;17.24;27.35;91509.34;4948426;28;20538;-80
2023/11/11 07:51:32;;;;;;;0.80;0.68;;;;;;;18.51;27.20;91508.34;4949338;29;20036;-80
2023/11/11 07:53:58;;;;;;;0.80;0.60;;;;;;;18.71;28.11;91511.63;4951868;28;20495;-82
2023/11/11 07:56:24;;;;;;;0.70;0.70;;;;;;;19.33;27.10;91511.22;4950544;29;20063;-78
2023/11/11 07:58:53;;;;;;;1.02;0.77;;;;;;;19.52;28.46;91517.44;4952813;29;20142;-79
2023/11/11 08:01:22;;;;;;;0.63;0.63;;;;;;;20.14;25.64;91517.63;4951256;29;20043;-80
2023/11/11 08:03:48;;;;;;;1.15;0.82;;;;;;;20.95;25.83;91518.50;4949906;29;20270;-79
2023/11/11 08:06:14;;;;;;;1.45;0.90;;;;;;;19.21;24.57;91519.44;4944703;29;20097;-80
2023/11/11 08:08:40;;;;;;;3.40;1.60;;;;;;;20.95;25.23;91517.75;4945456;29;20109;-81
2023/11/11 08:11:10;;;;;;;1.15;0.90;;;;;;;20.95;25.59;91525.75;4937279;29;20250;-81
2023/11/11 08:13:36;;;;;;;0.70;0.70;;;;;;;21.13;26.56;91515.16;4934587;29;20039;-82
2023/11/11 08:16:04;;;;;;;1.27;0.80;;;;;;;20.81;24.77;91521.13;4931370;29;20093;-81
2023/11/11 08:18:29;;;;;;;1.63;0.70;;;;;;;20.18;27.52;91530.97;4933826;29;20446;-83
2023/11/11 08:20:55;;;;;;;0.68;0.60;;;;;;;19.73;26.15;91523.00;4955435;28;20353;-80
2023/11/11 08:23:21;;;;;;;2.05;0.90;;;;;;;19.20;27.54;91519.78;4950579;29;20039;-81
2023/11/11 08:25:47;;;;;;;0.77;0.70;;;;;;;19.59;27.05;91527.38;4934528;28;20126;-81
2023/11/11 08:28:12;;;;;;;1.65;0.80;;;;;;;19.66;28.21;91541.50;4954869;28;20457;-81
2023/11/11 08:30:40;;;;;;;0.63;0.52;;;;;;;19.15;24.98;91536.78;4954043;29;20047;-81
2023/11/11 08:33:08;;;;;;;1.38;0.63;;;;;;;19.36;24.21;91538.91;4946776;29;20039;-81
2023/11/11 08:35:34;;;;;;;0.82;0.60;;;;;;;18.51;25.68;91540.13;4951339;29;20053;-81
2023/11/11 08:38:00;;;;;;;1.02;0.60;;;;;;;18.21;25.96;91541.97;4952127;29;20047;-80
2023/11/11 08:40:26;;;;;;;2.05;0.95;;;;;;;18.37;26.71;91547.88;4939813;29;20587;-82
2023/11/11 08:42:52;;;;;;;1.25;0.80;;;;;;;17.58;25.63;91546.59;4947800;29;20067;-81
2023/11/11 08:45:18;;;;;;;2.90;0.60;;;;;;;17.18;25.61;91547.78;4953226;29;20114;-83
2023/11/11 08:47:44;;;;;;;1.90;0.90;;;;;;;17.00;26.85;91570.44;4955205;28;20031;-81
2023/11/11 08:50:11;;;;;;;0.47;0.47;;;;;;;17.46;25.75;91558.09;4955552;29;20054;-83
2023/11/11 08:52:41;;;;;;;0.75;0.57;;;;;;;17.36;27.18;91555.25;4953613;29;20042;-81
2023/11/11 08:55:08;;;;;;;2.00;0.80;;;;;;;17.89;28.89;91560.75;4951830;28;20126;-82
2023/11/11 08:57:35;;;;;;;1.50;0.75;;;;;;;17.03;31.95;91564.47;4929201;29;20045;-81
2023/11/11 09:00:05;;;;;;;1.00;0.80;;;;;;;16.23;35.26;91558.59;4933409;28;20061;-82
2023/11/11 09:02:30;;;;;;;1.70;1.13;;;;;;;14.53;36.77;91551.97;4941629;29;20356;-82
2023/11/11 09:04:56;;;;;;;1.15;0.90;;;;;;;13.85;40.62;91555.22;4928494;29;20043;-81
2023/11/11 09:07:22;;;;;;;2.10;1.10;;;;;;;13.30;45.51;91565.84;4936460;29;20434;-81
2023/11/11 09:09:48;;;;;;;1.67;1.08;;;;;;;13.03;45.95;91567.16;4952409;29;20030;-81
2023/11/11 09:12:14;;;;;;;2.10;1.08;;;;;;;12.57;46.57;91574.16;4950703;29;20173;-81
2023/11/11 09:14:40;;;;;;;2.50;1.13;;;;;;;12.97;47.90;91565.84;4953556;29;20118;-80
2023/11/11 09:17:10;;;;;;;2.58;1.10;;;;;;;12.70;48.71;91565.28;4955425;29;20318;-80
2023/11/11 09:19:36;;;;;;;2.10;1.10;;;;;;;12.66;52.17;91572.25;4954314;29;20106;-81
2023/11/11 09:22:02;;;;;;;2.20;1.23;;;;;;;13.08;50.56;91566.19;4955439;29;20047;-83
2023/11/11 09:24:29;;;;;;;1.55;1.00;;;;;;;13.09;48.20;91576.38;4957050;29;20039;-84
2023/11/11 09:26:55;;;;;;;1.98;1.05;;;;;;;13.12;49.15;91578.34;4955097;29;20392;-82
2023/11/11 09:29:21;;;;;;;1.83;1.20;;;;;;;12.99;48.44;91563.66;4954786;29;20374;-83
2023/11/11 09:31:46;;;;;;;1.50;0.98;;;;;;;13.07;48.82;91565.41;4955363;28;20505;-81
2023/11/11 09:34:12;;;;;;;1.65;1.13;;;;;;;13.19;50.66;91572.56;4955537;29;20155;-83
2023/11/11 09:36:41;;;;;;;1.60;1.17;;;;;;;13.22;49.29;91563.28;4956009;29;20044;-81
2023/11/11 09:39:13;;;;;;;1.65;1.10;;;;;;;12.98;50.03;91569.97;4938657;29;20082;-82
2023/11/11 09:41:40;;;;;;;2.53;1.23;;;;;;;12.43;56.24;91565.78;4954845;29;20027;-82
2023/11/11 09:44:06;;;;;;;2.05;1.00;;;;;;;12.60;49.58;91573.53;4955695;29;20043;-81
2023/11/11 09:46:52;;;;;;;1.23;1.00;;;;;;;12.33;49.09;91568.78;4947037;28;20114;-82
2023/11/11 09:49:19;;;;;;;1.98;1.05;;;;;;;11.96;51.35;91587.66;4949649;29;20037;-83
2023/11/11 09:51:47;;;;;;;1.85;1.20;;;;;;;12.02;49.76;91582.97;4956614;29;20027;-81
2023/11/11 09:54:13;;;;;;;2.08;1.20;;;;;;;12.03;50.00;91584.53;4956727;29;20118;-82
2023/11/11 09:56:43;;;;;;;1.10;1.00;;;;;;;11.75;51.30;91584.91;4940451;29;20062;-81
2023/11/11 09:59:10;;;;;;;1.83;1.20;;;;;;;11.44;53.51;91588.56;4957440;29;20334;-82
2023/11/11 10:01:41;;;;;;;2.10;1.02;;;;;;;11.86;50.32;91583.47;4958895;29;20081;-82
2023/11/11 10:04:09;;;;;;;1.50;0.93;;;;;;;11.81;45.95;91604.63;4958232;29;20391;-82
2023/11/11 10:06:39;;;;;;;1.20;0.98;;;;;;;11.60;51.59;91609.03;4959262;29;20102;-82
2023/11/11 10:09:05;;;;;;;1.60;1.05;;;;;;;11.95;46.66;91606.31;4942081;29;20102;-82
2023/11/11 10:11:32;;;;;;;1.67;1.10;;;;;;;12.28;49.70;91609.84;4958023;29;20099;-83
2023/11/11 10:13:57;;;;;;;2.05;1.20;;;;;;;12.51;54.50;91612.19;4941120;29;20035;-82
2023/11/11 10:16:26;;;;;;;2.55;1.20;;;;;;;12.45;56.58;91609.00;4958625;28;20118;-83
2023/11/11 10:18:52;;;;;;;0.73;0.70;;;;;;;12.42;41.02;91600.97;4956720;29;20443;-81
2023/11/11 10:21:21;;;;;;;2.05;1.15;;;;;;;12.19;51.77;91611.00;4956991;29;20061;-83
2023/11/11 10:23:48;;;;;;;1.08;1.00;;;;;;;12.07;41.80;91604.56;4949390;29;20112;-83
2023/11/11 10:26:15;;;;;;;1.50;1.10;;;;;;;11.99;48.65;91607.22;4956255;28;20041;-82
2023/11/11 10:28:41;;;;;;;2.10;1.20;;;;;;;12.06;51.25;91597.78;4957355;29;20035;-82
2023/11/11 10:31:10;;;;;;;1.73;1.00;;;;;;;11.71;52.36;91606.81;4958151;29;20055;-82
2023/11/11 10:33:39;;;;;;;3.63;1.27;;;;;;;11.88;53.47;91606.81;4941495;29;20031;-82
2023/11/11 10:36:08;;;;;;;1.38;1.10;;;;;;;11.81;54.40;91598.63;4954689;29;20051;-82
2023/11/11 10:38:34;;;;;;;1.67;1.13;;;;;;;11.75;47.06;91598.03;4957267;28;20046;-82
2023/11/11 10:40:59;;;;;;;1.45;1.02;;;;;;;11.84;47.93;91596.16;4947268;29;20048;-82
2023/11/11 10:43:28;;;;;;;0.77;0.77;;;;;;;11.48;39.06;91588.69;4947360;29;20067;-81
2023/11/11 10:45:54;;;;;;;0.80;0.80;;;;;;;11.87;39.57;91592.94;4950025;29;20510;-82
2023/11/11 10:48:23;;;;;;;1.00;0.90;;;;;;;12.10;43.87;91590.03;4957016;29;20410;-83
2023/11/11 10:50:53;;;;;;;1.38;1.10;;;;;;;12.46;44.45;91584.28;4957308;29;20043;-82
2023/11/11 10:53:19;;;;;;;1.10;1.00;;;;;;;12.36;41.35;91579.41;4938130;29;20168;-83
2023/11/11 10:55:54;;;;;;;1.00;0.90;;;;;;;12.53;44.46;91565.41;4952289;28;20042;-84
2023/11/11 10:58:21;;;;;;;0.70;0.70;;;;;;;12.34;36.27;91575.53;4952636;28;20042;-82
2023/11/11 11:00:49;;;;;;;1.35;1.00;;;;;;;12.05;41.21;91569.25;4954556;29;20027;-83
2023/11/11 11:03:19;;;;;;;0.77;0.77;;;;;;;12.24;37.88;91561.72;4951651;29;20044;-81
2023/11/11 11:05:45;;;;;;;1.02;0.73;;;;;;;12.02;35.81;91564.63;4952431;29;20100;-81
2023/11/11 11:08:32;;;;;;;0.80;0.80;;;;;;;11.86;33.81;91572.22;4953040;28;20110;-82
2023/11/11 11:11:07;;;;;;;1.33;1.00;;;;;;;12.02;39.81;91569.88;4949680;28;20047;-80
2023/11/11 11:13:36;;;;;;;1.77;1.00;;;;;;;12.37;44.61;91561.81;4953002;29;20043;-80
2023/11/11 11:16:02;;;;;;;1.00;0.77;;;;;;;12.45;40.62;91569.63;4951341;28;20039;-81
2023/11/11 11:18:28;;;;;;;1.75;1.20;;;;;;;12.82;51.33;91561.94;4952046;29;20035;-83
2023/11/11 11:20:54;;;;;;;2.03;1.30;;;;;;;12.52;55.20;91563.88;4955922;29;20042;-81
2023/11/11 11:23:22;;;;;;;1.33;1.02;;;;;;;12.42;47.04;91569.47;4953802;29;20045;-80
2023/11/11 11:25:50;;;;;;;2.67;1.20;;;;;;;12.46;42.40;91575.63;4954309;28;20481;-83
2023/11/11 11:28:18;;;;;;;2.45;1.05;;;;;;;12.58;45.06;91570.44;4912417;29;20032;-81
2023/11/11 11:30:55;;;;;;;2.42;1.60;;;;;;;12.59;39.37;91576.50;4953988;29;20507;-82
2023/11/11 11:33:24;;;;;;;1.15;1.00;;;;;;;12.44;41.67;91569.94;4931785;29;20102;-81